Explorer - southeastern half: Past 24 Hour Conditions

 

Halibut Bank - 46146

07:00 PM PST 18 December 2018Buoy position: 49.34N 123.72W
Disclaimer

This table is a summary of hourly weather conditions for the past 24 hours.
Please note that these observations might not always be representative of weather conditions over their associated marine area.

Date / Time
(PST)
Wind(knots) Wave height(m) Wave period(s) Pressure(kPa) Air tempC) Water tempC)
18 December 2018
19:00 SSW 8 gust 10 0.4 4.0 100.9 9 9
18:00 S 8 gust 14 0.4 4.0 100.8 9 9
17:00 N/A N/A N/A N/A N/A N/A
16:00 SSE 14 gust 18 0.4 3.0 100.5 10 9
15:00 SE 10 gust 12 0.4 3.0 100.4 10 9
14:00 SSE 12 gust 14 0.3 3.0 100.4 10 9
13:00 ESE 8 gust 12 0.2 3.0 100.3 10 9
12:00 ESE 8 gust 10 0.3 3.0 100.2 10 9
11:00 ESE 6 gust 8 0.4 3.0 100.2 10 9
10:00 ESE 8 gust 10 0.4 4.0 100.0 10 9
9:00 ESE 10 gust 12 0.4 3.0 100.0 9 9
8:00 SE 14 gust 14 0.5 3.0 99.9 9 9
7:00 SE 14 gust 16 0.6 3.0 99.7 9 9
6:00 SE 16 gust 19 0.7 3.0 99.8 9 9
5:00 ESE 18 gust 19 0.8 4.0 99.8 9 9
4:00 ESE 19 gust 21 0.9 5.0 99.8 9 9
3:00 ESE 21 gust 25 1.0 4.0 99.9 9 9
2:00 ESE 19 gust 23 1.0 4.0 99.9 9 9
1:00 ESE 19 gust 23 1.1 5.0 100.0 9 9
0:00 SE 18 gust 23 1.1 4.0 100.1 9 9
17 December 2018
23:00 SE 18 gust 21 1.4 7.0 100.1 9 9
22:00 SE 19 gust 23 1.4 6.0 100.1 9 9
21:00 SE 21 gust 25 1.7 6.0 100.1 9 9
20:00 SE 25 gust 31 1.5 5.0 100.1 9 9
19:00 SE 27 gust 33 1.4 4.0 100.1 9 9

Zoom-in to make a selection

Map of Pacific - South Coast marine weather areas South Nomad - 46036 Sentry Shoal - 46131 South Brooks - 46132 Halibut Bank - 46146 South Moresby - 46147 South Hecate Strait - 46185 West Sea Otter - 46204 La Perouse Bank - 46206 East Dellwood - 46207 Discovery Island Esquimalt Harbour Kelp Reefs Malahat Race Rocks Lightstation Saturna Island Sheringham Point University of Victoria Victoria Gonzales Victoria Int'l Airport Ballenas Islands Campbell River Airport Comox Airport Entrance Island Fanny Island Nanaimo Airport Port Hardy Airport Sisters Islets Estevan Point Port Alberni Sartine Island Solander Island Tofino Airport Grief Point Howe Sound - Pam Rocks Powell River Airport Sechelt Squamish Airport Cape St.James Bella Bella Airport Bella Coola Airport Cathedral Point Herbert Island Point Atkinson Sand Heads Lightstation Tsawwassen Ferry Terminal Vancouver Int'l Airport Vancouver Harbour West Vancouver
Legend:
buoy Buoy
land station Land Station

Pacific - South Coast Area

Another Region

What we are doing

Date modified: